createdAt,value
2023-04-07T00:02:29.230Z,12.50
2023-04-07T00:04:58.566Z,12.50
2023-04-07T00:07:26.438Z,12.50
2023-04-07T00:09:54.278Z,12.50
2023-04-07T00:12:22.100Z,12.50
2023-04-07T00:14:50.455Z,12.50
2023-04-07T00:17:18.329Z,12.50
2023-04-07T00:19:47.829Z,12.50
2023-04-07T00:22:15.911Z,12.50
2023-04-07T00:24:43.977Z,12.50
2023-04-07T00:27:12.116Z,12.40
2023-04-07T00:29:39.938Z,10.90
2023-04-07T00:32:07.847Z,12.70
2023-04-07T00:34:35.752Z,12.40
2023-04-07T00:37:06.557Z,12.40
2023-04-07T00:39:34.576Z,12.40
2023-04-07T00:42:04.244Z,12.40
2023-04-07T00:44:33.486Z,12.40
2023-04-07T00:47:01.584Z,12.40
2023-04-07T00:49:29.961Z,12.40
2023-04-07T00:51:59.196Z,12.40
2023-04-07T00:54:28.404Z,12.40
2023-04-07T00:56:57.411Z,12.40
2023-04-07T00:59:26.217Z,12.30
2023-04-07T01:02:00.399Z,12.30
2023-04-07T01:04:33.725Z,12.30
2023-04-07T01:07:06.909Z,12.30
2023-04-07T01:09:41.917Z,12.30
2023-04-07T01:12:18.541Z,12.30
2023-04-07T01:14:52.518Z,12.30
2023-04-07T01:17:22.239Z,12.30
2023-04-07T01:19:57.165Z,12.30
2023-04-07T01:22:29.674Z,12.30
2023-04-07T01:25:54.985Z,12.30
2023-04-07T01:28:45.852Z,12.30
2023-04-07T01:31:16.672Z,12.30
2023-04-07T01:33:46.446Z,12.30
2023-04-07T01:36:15.555Z,12.20
2023-04-07T01:38:45.509Z,12.30
2023-04-07T01:41:16.066Z,12.20
2023-04-07T01:43:46.296Z,13.80
2023-04-07T01:46:16.585Z,12.30
2023-04-07T01:48:45.182Z,12.50
2023-04-07T01:51:17.533Z,12.20
2023-04-07T01:53:47.314Z,12.60
2023-04-07T01:56:16.680Z,12.20
2023-04-07T01:58:44.495Z,12.20
2023-04-07T02:01:12.878Z,12.20
2023-04-07T02:03:50.731Z,12.20
2023-04-07T02:06:23.623Z,12.20
2023-04-07T02:08:56.310Z,12.20
2023-04-07T02:11:27.245Z,12.20
2023-04-07T02:13:56.567Z,12.20
2023-04-07T02:16:25.405Z,12.20
2023-04-07T02:18:55.131Z,12.20
2023-04-07T02:21:23.659Z,12.20
2023-04-07T02:23:52.358Z,12.20
2023-04-07T02:26:20.167Z,12.20
2023-04-07T02:28:48.013Z,12.20
2023-04-07T02:31:16.152Z,12.20
2023-04-07T02:33:44.038Z,12.20
2023-04-07T02:36:13.827Z,12.20
2023-04-07T02:38:41.567Z,12.20
2023-04-07T02:41:09.491Z,12.20
2023-04-07T02:43:37.361Z,13.50
2023-04-07T02:46:06.740Z,12.20
2023-04-07T02:48:34.659Z,12.20
2023-04-07T02:51:02.501Z,12.20
2023-04-07T02:53:31.722Z,12.20
2023-04-07T02:56:00.196Z,12.20
2023-04-07T02:58:28.020Z,12.20
2023-04-07T03:00:55.946Z,12.20
2023-04-07T03:03:24.055Z,12.20
2023-04-07T03:05:52.076Z,12.20
2023-04-07T03:08:19.925Z,12.20
2023-04-07T03:10:49.539Z,12.40
2023-04-07T03:13:19.199Z,12.20
2023-04-07T03:15:47.663Z,12.20
2023-04-07T03:18:15.769Z,12.20
2023-04-07T03:20:44.522Z,12.20
2023-04-07T03:23:13.052Z,12.20
2023-04-07T03:25:41.871Z,12.20
2023-04-07T03:28:11.109Z,12.20
2023-04-07T03:30:39.055Z,12.20
2023-04-07T03:33:06.997Z,12.30
2023-04-07T03:35:34.910Z,12.30
2023-04-07T03:38:02.739Z,12.20
2023-04-07T03:40:30.645Z,12.20
2023-04-07T03:42:58.568Z,12.20
2023-04-07T03:45:27.771Z,12.20
2023-04-07T03:47:56.193Z,12.20
2023-04-07T03:50:24.118Z,12.20
2023-04-07T03:52:52.115Z,12.20
2023-04-07T03:55:19.950Z,12.30
2023-04-07T03:57:47.958Z,12.50
2023-04-07T04:00:16.094Z,12.20
2023-04-07T04:02:45.686Z,12.20
2023-04-07T04:05:13.884Z,12.30
2023-04-07T04:07:41.750Z,12.20
2023-04-07T04:10:10.650Z,12.20
2023-04-07T04:12:38.450Z,12.20
2023-04-07T04:15:07.027Z,12.20
2023-04-07T04:17:34.784Z,12.20
2023-04-07T04:20:04.130Z,12.20
2023-04-07T04:22:32.101Z,12.20
2023-04-07T04:25:00.568Z,12.20
2023-04-07T04:27:28.838Z,12.20
2023-04-07T04:29:56.698Z,12.20
2023-04-07T04:32:24.720Z,12.10
2023-04-07T04:34:52.579Z,12.10
2023-04-07T04:37:22.045Z,12.10
2023-04-07T04:39:51.148Z,12.10
2023-04-07T04:42:19.204Z,12.10
2023-04-07T04:44:47.333Z,12.10
2023-04-07T04:47:16.016Z,12.10
2023-04-07T04:49:44.223Z,12.10
2023-04-07T04:52:12.074Z,12.10
2023-04-07T04:54:41.234Z,12.10
2023-04-07T04:57:09.425Z,12.10
2023-04-07T04:59:37.214Z,12.10
2023-04-07T05:02:05.310Z,12.50
2023-04-07T05:04:33.594Z,12.10
2023-04-07T05:07:01.571Z,12.10
2023-04-07T05:09:29.644Z,12.20
2023-04-07T05:11:58.973Z,12.20
2023-04-07T05:14:26.912Z,12.10
2023-04-07T05:16:55.154Z,12.10
2023-04-07T05:19:23.143Z,12.10
2023-04-07T05:21:51.399Z,12.10
2023-04-07T05:24:19.213Z,12.10
2023-04-07T05:26:47.951Z,12.10
2023-04-07T05:29:17.334Z,13.90
2023-04-07T05:31:45.412Z,12.10
2023-04-07T05:34:13.284Z,12.10
2023-04-07T05:36:41.542Z,12.10
2023-04-07T05:39:09.625Z,12.20
2023-04-07T05:41:37.535Z,12.20
2023-04-07T05:44:06.424Z,12.20
2023-04-07T05:46:35.647Z,12.20
2023-04-07T05:49:18.420Z,12.20
2023-04-07T05:51:49.007Z,12.20
2023-04-07T05:54:17.417Z,12.20
2023-04-07T05:56:45.485Z,12.20
2023-04-07T05:59:13.372Z,12.20
2023-04-07T06:01:43.741Z,12.30
2023-04-07T06:04:11.790Z,12.30
2023-04-07T06:06:39.662Z,12.30
2023-04-07T06:09:08.263Z,12.30
2023-04-07T06:11:36.812Z,12.30
2023-04-07T06:14:04.867Z,12.30
2023-04-07T06:16:32.724Z,12.30
2023-04-07T06:19:02.453Z,12.30
2023-04-07T06:21:30.637Z,12.30
2023-04-07T06:23:58.656Z,12.30
2023-04-07T06:26:27.130Z,12.30
2023-04-07T06:28:55.315Z,12.30
2023-04-07T06:31:23.354Z,12.30
2023-04-07T06:33:51.577Z,12.40
2023-04-07T06:36:21.685Z,12.30
2023-04-07T06:38:49.932Z,12.30
2023-04-07T06:41:17.869Z,12.30
2023-04-07T06:43:46.295Z,12.30
2023-04-07T06:46:14.829Z,12.30
2023-04-07T06:48:43.121Z,12.30
2023-04-07T06:51:11.114Z,12.30
2023-04-07T06:53:41.486Z,12.40
2023-04-07T06:56:11.878Z,12.30
2023-04-07T06:58:40.506Z,12.40
2023-04-07T07:01:08.735Z,12.40
2023-04-07T07:03:36.694Z,12.40
2023-04-07T07:06:05.500Z,12.40
2023-04-07T07:08:33.320Z,12.50
2023-04-07T07:11:02.584Z,12.50
2023-04-07T07:13:30.486Z,12.50
2023-04-07T07:15:58.537Z,13.60
2023-04-07T07:18:26.564Z,12.50
2023-04-07T07:20:54.475Z,12.50
2023-04-07T07:23:22.281Z,12.60
2023-04-07T07:25:50.653Z,12.60
2023-04-07T07:28:21.491Z,12.60
2023-04-07T07:30:50.086Z,12.60
2023-04-07T07:33:18.032Z,12.70
2023-04-07T07:35:46.031Z,12.70
2023-04-07T07:38:14.249Z,12.70
2023-04-07T07:40:42.481Z,12.80
2023-04-07T07:43:10.738Z,12.80
2023-04-07T07:45:39.933Z,12.80
2023-04-07T07:48:07.891Z,12.80
2023-04-07T07:50:35.783Z,12.80
2023-04-07T07:53:03.764Z,12.80
2023-04-07T07:55:31.546Z,12.90
2023-04-07T07:57:59.332Z,13.00
2023-04-07T08:00:27.347Z,13.00
2023-04-07T08:02:56.616Z,13.00
2023-04-07T08:05:24.660Z,12.90
2023-04-07T08:07:54.664Z,13.00
2023-04-07T08:10:23.249Z,13.00
2023-04-07T08:12:51.276Z,13.00
2023-04-07T08:15:19.102Z,13.00
2023-04-07T08:17:47.030Z,13.00
2023-04-07T08:20:16.700Z,13.00
2023-04-07T08:22:44.965Z,13.00
2023-04-07T08:25:13.252Z,13.00
2023-04-07T08:27:42.447Z,13.10
2023-04-07T08:30:10.722Z,13.10
2023-04-07T08:32:39.414Z,13.10
2023-04-07T08:35:07.734Z,13.20
2023-04-07T08:37:37.191Z,13.20
2023-04-07T08:40:06.040Z,13.30
2023-04-07T08:42:35.376Z,13.30
2023-04-07T08:45:05.769Z,13.40
2023-04-07T08:47:35.776Z,13.50
2023-04-07T08:50:05.372Z,13.50
2023-04-07T08:52:41.170Z,13.70
2023-04-07T08:55:10.781Z,13.70
2023-04-07T08:57:39.082Z,13.70
2023-04-07T09:00:08.301Z,13.80
2023-04-07T09:02:38.278Z,13.80
2023-04-07T09:05:08.273Z,13.80
2023-04-07T09:07:38.537Z,13.90
2023-04-07T09:10:07.973Z,13.90
2023-04-07T09:12:36.136Z,13.90
2023-04-07T09:15:04.588Z,13.90
2023-04-07T09:17:32.430Z,13.90
2023-04-07T09:20:01.533Z,14.00
2023-04-07T09:22:42.531Z,14.00
2023-04-07T09:25:18.416Z,14.00
2023-04-07T09:27:56.535Z,14.00
2023-04-07T09:30:24.840Z,14.00
2023-04-07T09:32:52.816Z,13.90
2023-04-07T09:35:23.838Z,13.90
2023-04-07T09:38:11.410Z,13.90
2023-04-07T09:40:39.539Z,13.90
2023-04-07T09:43:07.677Z,13.90
2023-04-07T09:45:37.351Z,13.90
2023-04-07T09:48:08.689Z,13.90
2023-04-07T09:50:38.093Z,13.90
2023-04-07T09:53:05.920Z,13.90
2023-04-07T09:55:36.498Z,13.90
2023-04-07T09:58:06.317Z,13.90
2023-04-07T10:00:34.346Z,14.00
2023-04-07T10:03:03.631Z,14.00
2023-04-07T10:05:34.553Z,14.00
2023-04-07T10:08:03.980Z,14.00
2023-04-07T10:10:32.761Z,14.00
2023-04-07T10:13:05.575Z,14.00
2023-04-07T10:15:34.151Z,14.00
2023-04-07T10:18:04.327Z,14.00
2023-04-07T10:20:32.328Z,14.00
2023-04-07T10:23:10.979Z,14.10
2023-04-07T10:25:41.373Z,13.90
2023-04-07T10:28:12.375Z,14.00
2023-04-07T10:30:41.574Z,14.10
2023-04-07T10:33:09.871Z,14.00
2023-04-07T10:36:05.921Z,14.10
2023-04-07T10:38:34.185Z,14.10
2023-04-07T10:41:02.032Z,14.20
2023-04-07T10:43:40.798Z,14.20
2023-04-07T10:46:09.000Z,14.30
2023-04-07T10:48:37.096Z,14.30
2023-04-07T10:51:18.750Z,14.30
2023-04-07T10:54:22.515Z,14.40
2023-04-07T10:57:11.721Z,14.50
2023-04-07T10:59:46.921Z,14.40
2023-04-07T11:02:34.743Z,14.40
2023-04-07T11:05:03.621Z,14.40
2023-04-07T11:07:50.883Z,14.40
2023-04-07T11:10:19.444Z,14.10
2023-04-07T11:13:00.866Z,14.40
2023-04-07T11:15:30.165Z,14.40
2023-04-07T11:18:20.750Z,14.30
2023-04-07T11:20:51.572Z,14.40
2023-04-07T11:23:21.575Z,14.30
2023-04-07T11:25:51.521Z,14.30
2023-04-07T11:28:19.770Z,14.30
2023-04-07T11:30:51.877Z,14.40
2023-04-07T11:33:21.470Z,14.40
2023-04-07T11:35:55.432Z,14.40
2023-04-07T11:38:24.850Z,14.40
2023-04-07T11:40:52.911Z,14.40
2023-04-07T11:43:22.717Z,14.40
2023-04-07T11:46:12.762Z,14.40
2023-04-07T11:48:42.497Z,14.50
2023-04-07T11:51:17.891Z,14.50
2023-04-07T11:53:47.226Z,14.50
2023-04-07T11:56:18.478Z,14.50
2023-04-07T11:58:49.851Z,14.50
2023-04-07T12:01:19.568Z,14.60
2023-04-07T12:03:59.490Z,14.60
2023-04-07T12:06:34.512Z,14.60
2023-04-07T12:09:03.145Z,14.60
2023-04-07T12:11:31.760Z,14.60
2023-04-07T12:13:59.724Z,14.80
2023-04-07T12:16:29.031Z,14.70
2023-04-07T12:18:57.459Z,14.70
2023-04-07T12:21:25.612Z,14.70
2023-04-07T12:23:53.516Z,14.70
2023-04-07T12:26:23.369Z,14.80
2023-04-07T12:28:51.380Z,14.70
2023-04-07T12:31:19.550Z,14.80
2023-04-07T12:33:49.064Z,14.80
2023-04-07T12:36:17.174Z,14.80
2023-04-07T12:38:45.716Z,14.80
2023-04-07T12:41:13.711Z,14.90
2023-04-07T12:43:41.553Z,15.60
2023-04-07T12:46:09.571Z,14.90
2023-04-07T12:48:37.511Z,15.00
2023-04-07T12:51:06.924Z,15.00
2023-04-07T12:53:34.783Z,15.10
2023-04-07T12:56:02.784Z,15.10
2023-04-07T12:58:30.809Z,15.10
2023-04-07T13:01:00.695Z,15.20
2023-04-07T13:03:28.769Z,15.20
2023-04-07T13:06:01.110Z,15.30
2023-04-07T13:08:33.228Z,15.00
2023-04-07T13:11:01.084Z,15.30
2023-04-07T13:13:29.413Z,15.20
2023-04-07T13:15:57.392Z,15.20
2023-04-07T13:18:25.315Z,15.20
2023-04-07T13:21:13.224Z,15.20
2023-04-07T13:23:43.850Z,15.20
2023-04-07T13:26:12.169Z,15.10
2023-04-07T13:28:40.392Z,15.10
2023-04-07T13:31:09.539Z,15.10
2023-04-07T13:33:37.650Z,15.10
2023-04-07T13:36:05.546Z,15.10
2023-04-07T13:38:33.496Z,15.00
2023-04-07T13:41:04.142Z,15.10
2023-04-07T13:43:32.036Z,15.10
2023-04-07T13:46:00.600Z,15.10
2023-04-07T13:48:28.541Z,15.10
2023-04-07T13:50:56.489Z,15.10
2023-04-07T13:53:24.876Z,15.20
2023-04-07T13:55:52.861Z,16.20
2023-04-07T13:58:22.155Z,15.20
2023-04-07T14:00:50.609Z,15.10
2023-04-07T14:03:18.669Z,15.10
2023-04-07T14:05:46.542Z,15.20
2023-04-07T14:08:14.698Z,15.10
2023-04-07T14:10:43.518Z,15.10
2023-04-07T14:13:12.059Z,16.90
2023-04-07T14:15:41.263Z,15.10
2023-04-07T14:18:09.636Z,15.10
2023-04-07T14:20:38.151Z,15.00
2023-04-07T14:23:06.024Z,15.10
2023-04-07T14:25:33.940Z,15.10
2023-04-07T14:28:02.365Z,15.10
2023-04-07T14:30:30.854Z,15.10
2023-04-07T14:33:01.076Z,15.10
2023-04-07T14:35:29.814Z,15.10
2023-04-07T14:37:57.674Z,15.10
2023-04-07T14:40:25.976Z,15.10
2023-04-07T14:43:06.818Z,15.10
2023-04-07T14:45:35.592Z,15.10
2023-04-07T14:48:05.166Z,15.10
2023-04-07T14:50:33.436Z,15.10
2023-04-07T14:53:01.751Z,15.10
2023-04-07T14:55:30.857Z,15.00
2023-04-07T14:57:59.314Z,15.10
2023-04-07T15:00:27.255Z,15.00
2023-04-07T15:02:56.291Z,15.00
2023-04-07T15:05:26.180Z,15.00
2023-04-07T15:07:54.001Z,15.00
2023-04-07T15:10:22.040Z,15.00
2023-04-07T15:12:50.394Z,15.00
2023-04-07T15:15:18.774Z,15.00
2023-04-07T15:17:46.602Z,15.00
2023-04-07T15:20:14.797Z,15.00
2023-04-07T15:22:44.003Z,14.90
2023-04-07T15:25:12.439Z,14.90
2023-04-07T15:27:40.242Z,14.90
2023-04-07T15:30:09.559Z,14.90
2023-04-07T15:32:37.456Z,14.90
2023-04-07T15:35:06.140Z,14.80
2023-04-07T15:37:34.023Z,14.80
2023-04-07T15:40:03.275Z,14.80
2023-04-07T15:42:31.885Z,14.80
2023-04-07T15:44:59.732Z,14.80
2023-04-07T15:47:27.533Z,14.90
2023-04-07T15:49:55.756Z,14.80
2023-04-07T15:52:23.617Z,14.60
2023-04-07T15:54:51.946Z,14.60
2023-04-07T15:57:22.095Z,14.60
2023-04-07T15:59:52.138Z,14.60
2023-04-07T16:02:20.125Z,14.60
2023-04-07T16:04:48.677Z,14.60
2023-04-07T16:07:16.508Z,14.50
2023-04-07T16:09:44.718Z,14.50
2023-04-07T16:12:12.715Z,14.50
2023-04-07T16:14:41.947Z,14.50
2023-04-07T16:17:09.824Z,14.80
2023-04-07T16:19:37.796Z,14.50
2023-04-07T16:22:05.713Z,14.50
2023-04-07T16:24:33.527Z,14.40
2023-04-07T16:27:03.935Z,14.50
2023-04-07T16:29:32.179Z,14.50
2023-04-07T16:32:01.675Z,14.40
2023-04-07T16:34:29.557Z,14.40
2023-04-07T16:36:57.718Z,14.40
2023-04-07T16:39:27.216Z,14.40
2023-04-07T16:41:58.064Z,14.40
2023-04-07T16:44:25.928Z,14.40
2023-04-07T16:46:53.932Z,14.40
2023-04-07T16:49:23.152Z,14.60
2023-04-07T16:51:51.179Z,14.40
2023-04-07T16:54:19.090Z,14.40
2023-04-07T16:56:46.908Z,14.30
2023-04-07T16:59:15.042Z,14.30
2023-04-07T17:01:44.701Z,14.30
2023-04-07T17:04:12.902Z,14.30
2023-04-07T17:06:42.147Z,14.30
2023-04-07T17:09:12.080Z,14.30
2023-04-07T17:11:42.039Z,14.30
2023-04-07T17:14:09.900Z,14.20
2023-04-07T17:16:37.757Z,14.20
2023-04-07T17:19:05.624Z,14.20
2023-04-07T17:21:33.464Z,14.20
2023-04-07T17:24:02.614Z,14.20
2023-04-07T17:26:30.514Z,14.20
2023-04-07T17:28:58.437Z,14.20
2023-04-07T17:31:26.321Z,14.20
2023-04-07T17:33:54.209Z,14.20
2023-04-07T17:36:22.127Z,14.20
2023-04-07T17:38:50.342Z,14.30
2023-04-07T17:41:19.583Z,14.20
2023-04-07T17:43:47.873Z,14.20
2023-04-07T17:46:16.437Z,14.20
2023-04-07T17:48:45.376Z,14.20
2023-04-07T17:51:14.178Z,14.20
2023-04-07T17:53:42.137Z,14.20
2023-04-07T17:56:09.960Z,14.20
2023-04-07T17:58:39.101Z,14.10
2023-04-07T18:01:09.328Z,14.20
2023-04-07T18:03:38.230Z,14.10
2023-04-07T18:06:06.284Z,14.10
2023-04-07T18:08:34.330Z,14.10
2023-04-07T18:11:02.182Z,14.10
2023-04-07T18:13:29.982Z,14.10
2023-04-07T18:15:59.671Z,14.00
2023-04-07T18:18:27.544Z,14.10
2023-04-07T18:20:55.395Z,14.10
2023-04-07T18:23:23.228Z,14.00
2023-04-07T18:25:51.587Z,14.00
2023-04-07T18:28:20.143Z,14.00
2023-04-07T18:30:48.460Z,13.90
2023-04-07T18:33:17.633Z,13.90
2023-04-07T18:35:45.444Z,13.90
2023-04-07T18:38:13.585Z,13.90
2023-04-07T18:40:41.455Z,13.90
2023-04-07T18:43:09.509Z,13.80
2023-04-07T18:45:37.336Z,13.90
2023-04-07T18:48:05.676Z,13.80
2023-04-07T18:50:34.994Z,13.90
2023-04-07T18:53:03.127Z,13.90
2023-04-07T18:55:31.042Z,13.90
2023-04-07T18:57:58.915Z,13.90
2023-04-07T19:00:26.773Z,13.90
2023-04-07T19:02:54.874Z,13.80
2023-04-07T19:05:25.575Z,13.80
2023-04-07T19:07:55.346Z,13.80
2023-04-07T19:10:23.536Z,13.80
2023-04-07T19:12:51.677Z,13.80
2023-04-07T19:15:19.713Z,13.80
2023-04-07T19:17:47.679Z,13.80
2023-04-07T19:20:15.530Z,13.80
2023-04-07T19:22:43.918Z,13.80
2023-04-07T19:25:13.777Z,13.70
2023-04-07T19:27:41.983Z,13.80
2023-04-07T19:30:10.717Z,14.20
2023-04-07T19:32:38.885Z,13.70
2023-04-07T19:35:07.886Z,13.70
2023-04-07T19:37:35.785Z,13.70
2023-04-07T19:40:05.121Z,13.70
2023-04-07T19:42:34.369Z,13.80
2023-04-07T19:45:04.664Z,13.60
2023-04-07T19:47:32.619Z,13.60
2023-04-07T19:50:00.538Z,13.60
2023-04-07T19:52:30.115Z,13.60
2023-04-07T19:54:59.650Z,13.60
2023-04-07T19:57:28.359Z,13.60
2023-04-07T19:59:57.510Z,13.60
2023-04-07T20:02:25.536Z,13.60
2023-04-07T20:04:54.265Z,13.60
2023-04-07T20:07:22.681Z,13.60
2023-04-07T20:09:51.570Z,13.60
2023-04-07T20:12:19.438Z,13.60
2023-04-07T20:14:47.581Z,13.60
2023-04-07T20:17:16.830Z,13.60
2023-04-07T20:19:44.692Z,13.60
2023-04-07T20:22:12.972Z,13.60
2023-04-07T20:24:40.890Z,13.60
2023-04-07T20:27:08.853Z,13.60
2023-04-07T20:29:36.733Z,13.60
2023-04-07T20:32:04.616Z,13.60
2023-04-07T20:34:33.842Z,13.60
2023-04-07T20:37:01.674Z,13.60
2023-04-07T20:39:29.562Z,13.60
2023-04-07T20:41:57.523Z,13.60
2023-04-07T20:44:27.855Z,13.60
2023-04-07T20:46:56.319Z,13.60
2023-04-07T20:49:24.174Z,13.60
2023-04-07T20:51:53.572Z,13.60
2023-04-07T20:54:21.381Z,13.60
2023-04-07T20:56:49.595Z,13.80
2023-04-07T20:59:17.449Z,13.60
2023-04-07T21:01:46.670Z,13.60
2023-04-07T21:04:14.844Z,13.70
2023-04-07T21:06:43.172Z,13.70
2023-04-07T21:09:12.459Z,13.70
2023-04-07T21:11:40.334Z,13.60
2023-04-07T21:14:08.438Z,13.70
2023-04-07T21:16:36.960Z,13.70
2023-04-07T21:19:04.878Z,13.90
2023-04-07T21:21:32.771Z,13.70
2023-04-07T21:24:00.753Z,13.70
2023-04-07T21:26:31.087Z,13.70
2023-04-07T21:28:59.039Z,13.70
2023-04-07T21:31:27.844Z,13.70
2023-04-07T21:33:55.762Z,13.70
2023-04-07T21:36:23.709Z,13.60
2023-04-07T21:38:51.940Z,13.60
2023-04-07T21:41:19.848Z,13.60
2023-04-07T21:43:48.998Z,13.60
2023-04-07T21:46:19.051Z,13.60
2023-04-07T21:48:48.909Z,13.60
2023-04-07T21:51:17.375Z,13.60
2023-04-07T21:53:45.343Z,13.60
2023-04-07T21:56:13.726Z,13.60
2023-04-07T21:58:42.628Z,13.60
2023-04-07T22:01:12.287Z,13.60
2023-04-07T22:03:40.748Z,13.60
2023-04-07T22:06:08.762Z,13.60
2023-04-07T22:08:36.655Z,13.60
2023-04-07T22:11:04.685Z,13.50
2023-04-07T22:13:32.515Z,13.50
2023-04-07T22:16:02.148Z,13.50
2023-04-07T22:18:31.502Z,13.50
2023-04-07T22:20:59.301Z,13.50
2023-04-07T22:23:27.810Z,13.50
2023-04-07T22:25:56.104Z,13.40
2023-04-07T22:28:23.897Z,13.50
2023-04-07T22:30:51.815Z,13.50
2023-04-07T22:33:21.594Z,13.40
2023-04-07T22:35:51.220Z,13.40
2023-04-07T22:38:19.148Z,13.40
2023-04-07T22:40:47.068Z,13.40
2023-04-07T22:43:15.369Z,13.40
2023-04-07T22:45:43.375Z,13.40
2023-04-07T22:48:11.599Z,13.40
2023-04-07T22:50:39.457Z,13.40
2023-04-07T22:53:09.829Z,13.30
2023-04-07T22:55:37.704Z,13.60
2023-04-07T22:58:06.036Z,13.90
2023-04-07T23:00:34.103Z,13.20
2023-04-07T23:03:02.082Z,13.20
2023-04-07T23:05:30.265Z,13.20
2023-04-07T23:07:58.124Z,13.10
2023-04-07T23:10:27.390Z,13.10
2023-04-07T23:12:55.243Z,13.10
2023-04-07T23:15:23.075Z,13.10
2023-04-07T23:17:51.468Z,13.10
2023-04-07T23:20:19.636Z,13.00
2023-04-07T23:22:48.673Z,13.00
2023-04-07T23:25:16.517Z,13.00
2023-04-07T23:27:45.668Z,13.40
2023-04-07T23:30:14.641Z,12.90
2023-04-07T23:32:42.625Z,12.90
2023-04-07T23:35:11.624Z,12.90
2023-04-07T23:37:39.454Z,12.80
2023-04-07T23:40:08.631Z,12.80
2023-04-07T23:42:36.737Z,12.80
2023-04-07T23:45:06.977Z,12.80
2023-04-07T23:47:42.401Z,12.80
2023-04-07T23:50:10.693Z,12.80
2023-04-07T23:52:38.830Z,12.80
2023-04-07T23:55:07.513Z,12.70
2023-04-07T23:57:35.282Z,12.80
